KESC/ESC METAR and TAF weather

Enter ICAO airport designator
Station Type Date Time Source
KESC METAR 2021/03/06 01:56 UTC NOAA

KESC 060156Z AUTO 33003KT 10SM CLR M02/M07 A3035 RMK AO2 SLP289 T10221072 FZRANO


Station Type Date Time Source
KESC Decoded METAR 2021/03/06 01:56 UTC NOAA

Escanaba, MI, United States (KESC) 45-45N 087-02W 187M
Mar 05, 2021 - 08:56 PM EST / 2021.03.06 0156 UTC
Wind: from the NNW (330 degrees) at 3 MPH (3 KT):0
Visibility: 10 mile(s):0
Sky conditions: clear
Temperature: 28.0 F (-2.2 C)
Dew Point: 19.0 F (-7.2 C)
Relative Humidity: 68%
Pressure (altimeter): 30.35 in. Hg (1027 hPa)
ob: KESC 060156Z AUTO 33003KT 10SM CLR M02/M07 A3035 RMK AO2 SLP289 T10221072 FZRANO
cycle: 2

Station Type Date Time Source
KESC TAF UTC NOAA

Error!

Example: see airport list